sensor_id;sensor_type;location;lat;lon;timestamp;P1;durP1;ratioP1;P2;durP2;ratioP2
58770;SDS011;44539;42.962;1.596;2023-03-03T00:01:03;36.15;;;15.73;;
58770;SDS011;44539;42.962;1.596;2023-03-03T00:03:29;36.58;;;15.00;;
58770;SDS011;44539;42.962;1.596;2023-03-03T00:05:54;37.45;;;16.27;;
58770;SDS011;44539;42.962;1.596;2023-03-03T00:08:20;38.85;;;15.93;;
58770;SDS011;44539;42.962;1.596;2023-03-03T00:10:46;36.47;;;15.73;;
58770;SDS011;44539;42.962;1.596;2023-03-03T00:13:17;34.95;;;15.10;;
58770;SDS011;44539;42.962;1.596;2023-03-03T00:15:43;36.63;;;14.75;;
58770;SDS011;44539;42.962;1.596;2023-03-03T00:18:29;36.60;;;15.35;;
58770;SDS011;44539;42.962;1.596;2023-03-03T00:21:01;36.30;;;14.93;;
58770;SDS011;44539;42.962;1.596;2023-03-03T00:23:34;34.67;;;15.35;;
58770;SDS011;44539;42.962;1.596;2023-03-03T00:26:02;36.78;;;15.98;;
58770;SDS011;44539;42.962;1.596;2023-03-03T00:28:44;37.97;;;15.40;;
58770;SDS011;44539;42.962;1.596;2023-03-03T00:31:24;34.67;;;15.10;;
58770;SDS011;44539;42.962;1.596;2023-03-03T00:33:55;35.38;;;15.13;;
58770;SDS011;44539;42.962;1.596;2023-03-03T00:36:28;38.88;;;16.00;;
58770;SDS011;44539;42.962;1.596;2023-03-03T00:41:50;32.00;;;13.63;;
58770;SDS011;44539;42.962;1.596;2023-03-03T00:52:36;43.13;;;18.23;;
58770;SDS011;44539;42.962;1.596;2023-03-03T00:55:03;41.55;;;17.52;;
58770;SDS011;44539;42.962;1.596;2023-03-03T00:57:29;41.90;;;16.83;;
58770;SDS011;44539;42.962;1.596;2023-03-03T00:59:55;37.55;;;16.77;;
58770;SDS011;44539;42.962;1.596;2023-03-03T01:02:20;39.28;;;16.40;;
58770;SDS011;44539;42.962;1.596;2023-03-03T01:04:48;40.65;;;17.02;;
58770;SDS011;44539;42.962;1.596;2023-03-03T01:07:15;37.47;;;16.20;;
58770;SDS011;44539;42.962;1.596;2023-03-03T01:09:40;36.33;;;16.08;;
58770;SDS011;44539;42.962;1.596;2023-03-03T01:12:06;40.45;;;16.95;;
58770;SDS011;44539;42.962;1.596;2023-03-03T01:14:31;39.97;;;16.70;;
58770;SDS011;44539;42.962;1.596;2023-03-03T01:16:57;35.92;;;16.70;;
58770;SDS011;44539;42.962;1.596;2023-03-03T01:19:23;38.03;;;16.63;;
58770;SDS011;44539;42.962;1.596;2023-03-03T01:21:49;39.17;;;16.70;;
58770;SDS011;44539;42.962;1.596;2023-03-03T01:24:14;37.22;;;17.85;;
58770;SDS011;44539;42.962;1.596;2023-03-03T01:26:40;40.13;;;16.65;;
58770;SDS011;44539;42.962;1.596;2023-03-03T01:29:05;40.38;;;17.05;;
58770;SDS011;44539;42.962;1.596;2023-03-03T01:31:31;43.17;;;17.30;;
58770;SDS011;44539;42.962;1.596;2023-03-03T01:33:56;40.83;;;16.83;;
58770;SDS011;44539;42.962;1.596;2023-03-03T01:36:23;39.30;;;17.13;;
58770;SDS011;44539;42.962;1.596;2023-03-03T01:38:49;39.50;;;15.50;;
58770;SDS011;44539;42.962;1.596;2023-03-03T01:41:15;40.63;;;18.48;;
58770;SDS011;44539;42.962;1.596;2023-03-03T01:43:44;38.25;;;17.70;;
58770;SDS011;44539;42.962;1.596;2023-03-03T01:48:48;37.17;;;17.10;;
58770;SDS011;44539;42.962;1.596;2023-03-03T01:51:22;41.30;;;16.77;;
58770;SDS011;44539;42.962;1.596;2023-03-03T01:54:03;36.05;;;16.42;;
58770;SDS011;44539;42.962;1.596;2023-03-03T01:56:30;41.30;;;16.77;;
58770;SDS011;44539;42.962;1.596;2023-03-03T01:59:17;38.83;;;18.05;;
58770;SDS011;44539;42.962;1.596;2023-03-03T02:01:47;44.70;;;18.13;;
58770;SDS011;44539;42.962;1.596;2023-03-03T02:04:14;46.45;;;18.60;;
58770;SDS011;44539;42.962;1.596;2023-03-03T02:06:42;42.97;;;18.85;;
58770;SDS011;44539;42.962;1.596;2023-03-03T02:09:31;44.72;;;19.02;;
58770;SDS011;44539;42.962;1.596;2023-03-03T02:12:07;44.55;;;18.63;;
58770;SDS011;44539;42.962;1.596;2023-03-03T02:14:35;41.45;;;17.98;;
58770;SDS011;44539;42.962;1.596;2023-03-03T02:17:01;47.80;;;19.55;;
58770;SDS011;44539;42.962;1.596;2023-03-03T02:19:30;41.50;;;18.10;;
58770;SDS011;44539;42.962;1.596;2023-03-03T02:22:03;43.60;;;18.55;;
58770;SDS011;44539;42.962;1.596;2023-03-03T02:24:38;40.30;;;18.52;;
58770;SDS011;44539;42.962;1.596;2023-03-03T02:27:10;42.97;;;18.52;;
58770;SDS011;44539;42.962;1.596;2023-03-03T02:29:35;46.08;;;17.83;;
58770;SDS011;44539;42.962;1.596;2023-03-03T02:32:00;46.03;;;18.77;;
58770;SDS011;44539;42.962;1.596;2023-03-03T02:34:26;45.78;;;18.75;;
58770;SDS011;44539;42.962;1.596;2023-03-03T02:36:51;42.35;;;18.20;;
58770;SDS011;44539;42.962;1.596;2023-03-03T02:39:24;48.15;;;19.55;;
58770;SDS011;44539;42.962;1.596;2023-03-03T02:41:56;44.65;;;17.88;;
58770;SDS011;44539;42.962;1.596;2023-03-03T02:44:26;37.60;;;17.35;;
58770;SDS011;44539;42.962;1.596;2023-03-03T02:46:54;40.42;;;17.75;;
58770;SDS011;44539;42.962;1.596;2023-03-03T02:49:21;43.85;;;18.00;;
58770;SDS011;44539;42.962;1.596;2023-03-03T02:51:48;41.67;;;17.58;;
58770;SDS011;44539;42.962;1.596;2023-03-03T02:54:15;40.17;;;17.02;;
58770;SDS011;44539;42.962;1.596;2023-03-03T02:56:43;40.42;;;18.30;;
58770;SDS011;44539;42.962;1.596;2023-03-03T02:59:09;41.75;;;17.92;;
58770;SDS011;44539;42.962;1.596;2023-03-03T03:01:34;42.15;;;18.60;;
58770;SDS011;44539;42.962;1.596;2023-03-03T03:04:08;42.40;;;17.38;;
58770;SDS011;44539;42.962;1.596;2023-03-03T03:06:35;41.42;;;18.02;;
58770;SDS011;44539;42.962;1.596;2023-03-03T03:09:00;46.42;;;18.48;;
58770;SDS011;44539;42.962;1.596;2023-03-03T03:11:26;39.58;;;17.83;;
58770;SDS011;44539;42.962;1.596;2023-03-03T03:13:51;41.35;;;17.45;;
58770;SDS011;44539;42.962;1.596;2023-03-03T03:16:17;43.17;;;17.63;;
58770;SDS011;44539;42.962;1.596;2023-03-03T03:18:43;42.83;;;17.48;;
58770;SDS011;44539;42.962;1.596;2023-03-03T03:21:09;38.45;;;17.00;;
58770;SDS011;44539;42.962;1.596;2023-03-03T03:23:36;43.15;;;17.35;;
58770;SDS011;44539;42.962;1.596;2023-03-03T03:26:02;44.45;;;18.52;;
58770;SDS011;44539;42.962;1.596;2023-03-03T03:28:28;43.08;;;17.88;;
58770;SDS011;44539;42.962;1.596;2023-03-03T03:30:53;37.78;;;17.80;;
58770;SDS011;44539;42.962;1.596;2023-03-03T03:33:19;43.53;;;17.58;;
58770;SDS011;44539;42.962;1.596;2023-03-03T03:35:44;41.97;;;18.20;;
58770;SDS011;44539;42.962;1.596;2023-03-03T03:38:11;46.35;;;17.70;;
58770;SDS011;44539;42.962;1.596;2023-03-03T03:40:38;42.88;;;17.25;;
58770;SDS011;44539;42.962;1.596;2023-03-03T03:43:04;41.42;;;17.52;;
58770;SDS011;44539;42.962;1.596;2023-03-03T03:45:29;41.85;;;16.70;;
58770;SDS011;44539;42.962;1.596;2023-03-03T03:47:55;43.53;;;16.65;;
58770;SDS011;44539;42.962;1.596;2023-03-03T03:50:20;38.33;;;16.60;;
58770;SDS011;44539;42.962;1.596;2023-03-03T03:52:46;41.38;;;17.48;;
58770;SDS011;44539;42.962;1.596;2023-03-03T03:55:11;35.53;;;15.30;;
58770;SDS011;44539;42.962;1.596;2023-03-03T03:57:37;43.83;;;17.27;;
58770;SDS011;44539;42.962;1.596;2023-03-03T04:00:03;38.95;;;16.13;;
58770;SDS011;44539;42.962;1.596;2023-03-03T04:02:29;43.60;;;16.02;;
58770;SDS011;44539;42.962;1.596;2023-03-03T04:04:55;38.88;;;15.93;;
58770;SDS011;44539;42.962;1.596;2023-03-03T04:07:20;36.42;;;15.63;;
58770;SDS011;44539;42.962;1.596;2023-03-03T04:09:46;38.70;;;16.77;;
58770;SDS011;44539;42.962;1.596;2023-03-03T04:12:11;42.70;;;17.40;;
58770;SDS011;44539;42.962;1.596;2023-03-03T04:14:36;39.05;;;16.10;;
58770;SDS011;44539;42.962;1.596;2023-03-03T04:17:02;38.50;;;15.40;;
58770;SDS011;44539;42.962;1.596;2023-03-03T04:19:27;35.65;;;16.17;;
58770;SDS011;44539;42.962;1.596;2023-03-03T04:21:53;40.75;;;16.83;;
58770;SDS011;44539;42.962;1.596;2023-03-03T04:24:18;41.42;;;16.38;;
58770;SDS011;44539;42.962;1.596;2023-03-03T04:26:43;43.95;;;16.83;;
58770;SDS011;44539;42.962;1.596;2023-03-03T04:29:09;39.10;;;15.43;;
58770;SDS011;44539;42.962;1.596;2023-03-03T04:31:34;37.15;;;15.63;;
58770;SDS011;44539;42.962;1.596;2023-03-03T04:34:00;42.05;;;16.52;;
58770;SDS011;44539;42.962;1.596;2023-03-03T04:36:25;39.22;;;15.65;;
58770;SDS011;44539;42.962;1.596;2023-03-03T04:38:50;41.08;;;15.88;;
58770;SDS011;44539;42.962;1.596;2023-03-03T04:41:16;38.58;;;16.45;;
58770;SDS011;44539;42.962;1.596;2023-03-03T04:43:41;35.78;;;15.18;;
58770;SDS011;44539;42.962;1.596;2023-03-03T04:46:07;32.95;;;14.65;;
58770;SDS011;44539;42.962;1.596;2023-03-03T04:48:32;41.22;;;15.75;;
58770;SDS011;44539;42.962;1.596;2023-03-03T04:50:57;34.60;;;15.07;;
58770;SDS011;44539;42.962;1.596;2023-03-03T04:53:23;35.45;;;14.93;;
58770;SDS011;44539;42.962;1.596;2023-03-03T04:55:50;37.85;;;15.00;;
58770;SDS011;44539;42.962;1.596;2023-03-03T04:58:16;40.08;;;15.23;;
58770;SDS011;44539;42.962;1.596;2023-03-03T05:00:43;36.50;;;14.68;;
58770;SDS011;44539;42.962;1.596;2023-03-03T05:03:10;37.70;;;15.45;;
58770;SDS011;44539;42.962;1.596;2023-03-03T05:05:36;36.97;;;14.95;;
58770;SDS011;44539;42.962;1.596;2023-03-03T05:08:02;34.60;;;15.23;;
58770;SDS011;44539;42.962;1.596;2023-03-03T05:10:27;34.65;;;15.05;;
58770;SDS011;44539;42.962;1.596;2023-03-03T05:12:53;35.42;;;15.48;;
58770;SDS011;44539;42.962;1.596;2023-03-03T05:15:19;38.05;;;15.25;;
58770;SDS011;44539;42.962;1.596;2023-03-03T05:17:44;36.25;;;15.07;;
58770;SDS011;44539;42.962;1.596;2023-03-03T05:20:10;36.78;;;15.25;;
58770;SDS011;44539;42.962;1.596;2023-03-03T05:22:37;35.97;;;15.32;;
58770;SDS011;44539;42.962;1.596;2023-03-03T05:25:02;39.47;;;14.95;;
58770;SDS011;44539;42.962;1.596;2023-03-03T05:27:28;35.88;;;14.70;;
58770;SDS011;44539;42.962;1.596;2023-03-03T05:29:54;35.58;;;15.20;;
58770;SDS011;44539;42.962;1.596;2023-03-03T05:32:19;35.92;;;14.88;;
58770;SDS011;44539;42.962;1.596;2023-03-03T05:34:44;33.05;;;14.70;;
58770;SDS011;44539;42.962;1.596;2023-03-03T05:37:10;38.38;;;15.80;;
58770;SDS011;44539;42.962;1.596;2023-03-03T05:39:35;34.38;;;13.95;;
58770;SDS011;44539;42.962;1.596;2023-03-03T05:42:01;32.80;;;14.32;;
58770;SDS011;44539;42.962;1.596;2023-03-03T05:44:27;37.65;;;14.80;;
58770;SDS011;44539;42.962;1.596;2023-03-03T05:46:52;33.83;;;14.30;;
58770;SDS011;44539;42.962;1.596;2023-03-03T05:49:18;39.38;;;14.98;;
58770;SDS011;44539;42.962;1.596;2023-03-03T05:51:43;35.13;;;15.02;;
58770;SDS011;44539;42.962;1.596;2023-03-03T05:54:09;37.20;;;15.40;;
58770;SDS011;44539;42.962;1.596;2023-03-03T05:56:34;35.70;;;15.07;;
58770;SDS011;44539;42.962;1.596;2023-03-03T05:59:00;36.60;;;15.68;;
58770;SDS011;44539;42.962;1.596;2023-03-03T06:01:25;33.80;;;14.77;;
58770;SDS011;44539;42.962;1.596;2023-03-03T06:03:51;36.92;;;14.98;;
58770;SDS011;44539;42.962;1.596;2023-03-03T06:06:17;34.67;;;14.18;;
58770;SDS011;44539;42.962;1.596;2023-03-03T06:08:43;38.08;;;14.98;;
58770;SDS011;44539;42.962;1.596;2023-03-03T06:11:08;36.03;;;15.10;;
58770;SDS011;44539;42.962;1.596;2023-03-03T06:13:35;36.83;;;16.20;;
58770;SDS011;44539;42.962;1.596;2023-03-03T06:16:00;35.38;;;15.30;;
58770;SDS011;44539;42.962;1.596;2023-03-03T06:18:25;38.10;;;16.15;;
58770;SDS011;44539;42.962;1.596;2023-03-03T06:20:54;34.00;;;14.82;;
58770;SDS011;44539;42.962;1.596;2023-03-03T06:23:19;38.60;;;14.98;;
58770;SDS011;44539;42.962;1.596;2023-03-03T06:25:45;34.70;;;15.30;;
58770;SDS011;44539;42.962;1.596;2023-03-03T06:28:11;39.25;;;15.20;;
58770;SDS011;44539;42.962;1.596;2023-03-03T06:30:37;38.65;;;15.00;;
58770;SDS011;44539;42.962;1.596;2023-03-03T06:33:03;37.28;;;15.07;;
58770;SDS011;44539;42.962;1.596;2023-03-03T06:35:29;36.78;;;15.73;;
58770;SDS011;44539;42.962;1.596;2023-03-03T06:37:54;40.08;;;15.77;;
58770;SDS011;44539;42.962;1.596;2023-03-03T06:40:19;39.90;;;15.93;;
58770;SDS011;44539;42.962;1.596;2023-03-03T06:42:45;37.55;;;15.10;;
58770;SDS011;44539;42.962;1.596;2023-03-03T06:45:10;38.30;;;15.93;;
58770;SDS011;44539;42.962;1.596;2023-03-03T06:47:37;41.67;;;16.10;;
58770;SDS011;44539;42.962;1.596;2023-03-03T06:50:02;39.80;;;16.60;;
58770;SDS011;44539;42.962;1.596;2023-03-03T06:52:28;35.13;;;15.63;;
58770;SDS011;44539;42.962;1.596;2023-03-03T06:54:54;37.75;;;15.82;;
58770;SDS011;44539;42.962;1.596;2023-03-03T06:57:26;41.05;;;16.92;;
58770;SDS011;44539;42.962;1.596;2023-03-03T06:59:56;39.15;;;16.35;;
58770;SDS011;44539;42.962;1.596;2023-03-03T07:02:26;43.75;;;17.52;;
58770;SDS011;44539;42.962;1.596;2023-03-03T07:04:52;42.15;;;17.27;;
58770;SDS011;44539;42.962;1.596;2023-03-03T07:07:21;41.33;;;17.40;;
58770;SDS011;44539;42.962;1.596;2023-03-03T07:09:49;41.47;;;17.08;;
58770;SDS011;44539;42.962;1.596;2023-03-03T07:12:20;38.65;;;17.00;;
58770;SDS011;44539;42.962;1.596;2023-03-03T07:14:49;40.97;;;17.02;;
58770;SDS011;44539;42.962;1.596;2023-03-03T07:17:35;44.85;;;17.92;;
58770;SDS011;44539;42.962;1.596;2023-03-03T07:20:10;40.63;;;18.40;;
58770;SDS011;44539;42.962;1.596;2023-03-03T07:22:43;38.75;;;17.17;;
58770;SDS011;44539;42.962;1.596;2023-03-03T07:25:17;43.45;;;17.73;;
58770;SDS011;44539;42.962;1.596;2023-03-03T07:27:45;42.17;;;17.50;;
58770;SDS011;44539;42.962;1.596;2023-03-03T07:32:40;45.10;;;18.15;;
58770;SDS011;44539;42.962;1.596;2023-03-03T07:35:24;39.03;;;17.73;;
58770;SDS011;44539;42.962;1.596;2023-03-03T07:38:15;43.78;;;16.67;;
58770;SDS011;44539;42.962;1.596;2023-03-03T07:40:48;37.10;;;16.77;;
58770;SDS011;44539;42.962;1.596;2023-03-03T07:52:01;42.65;;;16.58;;
58770;SDS011;44539;42.962;1.596;2023-03-03T07:54:42;43.90;;;17.85;;
58770;SDS011;44539;42.962;1.596;2023-03-03T08:00:00;51.03;;;18.55;;
58770;SDS011;44539;42.962;1.596;2023-03-03T08:05:20;45.33;;;18.58;;
58770;SDS011;44539;42.962;1.596;2023-03-03T08:10:54;44.35;;;18.45;;
58770;SDS011;44539;42.962;1.596;2023-03-03T08:18:34;38.95;;;17.20;;
58770;SDS011;44539;42.962;1.596;2023-03-03T08:21:11;40.35;;;17.88;;
58770;SDS011;44539;42.962;1.596;2023-03-03T08:23:38;47.08;;;18.65;;
58770;SDS011;44539;42.962;1.596;2023-03-03T08:26:04;46.80;;;19.13;;
58770;SDS011;44539;42.962;1.596;2023-03-03T08:28:29;42.05;;;19.05;;
58770;SDS011;44539;42.962;1.596;2023-03-03T08:30:55;41.42;;;18.65;;
58770;SDS011;44539;42.962;1.596;2023-03-03T08:33:21;43.20;;;19.27;;
58770;SDS011;44539;42.962;1.596;2023-03-03T08:35:47;45.25;;;19.65;;
58770;SDS011;44539;42.962;1.596;2023-03-03T08:38:13;46.72;;;20.02;;
58770;SDS011;44539;42.962;1.596;2023-03-03T08:40:40;46.70;;;19.75;;
58770;SDS011;44539;42.962;1.596;2023-03-03T08:43:06;47.15;;;19.90;;
58770;SDS011;44539;42.962;1.596;2023-03-03T08:45:32;49.72;;;21.40;;
58770;SDS011;44539;42.962;1.596;2023-03-03T08:47:58;46.30;;;21.33;;
58770;SDS011;44539;42.962;1.596;2023-03-03T08:50:24;47.92;;;20.27;;
58770;SDS011;44539;42.962;1.596;2023-03-03T08:52:50;51.35;;;20.77;;
58770;SDS011;44539;42.962;1.596;2023-03-03T08:55:15;44.97;;;20.08;;
58770;SDS011;44539;42.962;1.596;2023-03-03T08:57:41;48.58;;;19.50;;
58770;SDS011;44539;42.962;1.596;2023-03-03T09:00:08;47.70;;;19.00;;
58770;SDS011;44539;42.962;1.596;2023-03-03T09:02:37;41.45;;;18.52;;
58770;SDS011;44539;42.962;1.596;2023-03-03T09:05:03;46.00;;;19.08;;
58770;SDS011;44539;42.962;1.596;2023-03-03T09:07:29;46.72;;;17.65;;
58770;SDS011;44539;42.962;1.596;2023-03-03T09:09:54;40.17;;;17.45;;
58770;SDS011;44539;42.962;1.596;2023-03-03T09:12:30;36.60;;;16.50;;
58770;SDS011;44539;42.962;1.596;2023-03-03T09:14:59;36.13;;;15.98;;
58770;SDS011;44539;42.962;1.596;2023-03-03T09:17:37;38.17;;;15.80;;
58770;SDS011;44539;42.962;1.596;2023-03-03T09:22:47;32.78;;;13.18;;
58770;SDS011;44539;42.962;1.596;2023-03-03T09:25:33;32.85;;;13.85;;
58770;SDS011;44539;42.962;1.596;2023-03-03T09:28:00;25.02;;;11.52;;
58770;SDS011;44539;42.962;1.596;2023-03-03T09:32:58;26.42;;;11.40;;
58770;SDS011;44539;42.962;1.596;2023-03-03T09:38:01;28.85;;;12.20;;
58770;SDS011;44539;42.962;1.596;2023-03-03T09:40:50;29.73;;;11.88;;
58770;SDS011;44539;42.962;1.596;2023-03-03T09:43:44;28.20;;;11.38;;
58770;SDS011;44539;42.962;1.596;2023-03-03T10:34:51;23.40;;;11.00;;
58770;SDS011;44539;42.962;1.596;2023-03-03T10:37:00;25.05;;;10.50;;
58770;SDS011;44539;42.962;1.596;2023-03-03T11:08:28;20.60;;;8.70;;
58770;SDS011;44539;42.962;1.596;2023-03-03T11:11:16;22.75;;;8.43;;
58770;SDS011;44539;42.962;1.596;2023-03-03T11:19:04;22.45;;;9.15;;
58770;SDS011;44539;42.962;1.596;2023-03-03T11:34:46;17.77;;;7.72;;
58770;SDS011;44539;42.962;1.596;2023-03-03T11:40:00;17.30;;;7.85;;
58770;SDS011;44539;42.962;1.596;2023-03-03T11:42:54;18.75;;;8.52;;
58770;SDS011;44539;42.962;1.596;2023-03-03T11:45:46;19.70;;;8.25;;
58770;SDS011;44539;42.962;1.596;2023-03-03T11:48:17;18.13;;;8.00;;
58770;SDS011;44539;42.962;1.596;2023-03-03T11:55:51;21.13;;;8.88;;
58770;SDS011;44539;42.962;1.596;2023-03-03T11:58:30;20.48;;;8.05;;
58770;SDS011;44539;42.962;1.596;2023-03-03T12:04:43;19.63;;;8.00;;
58770;SDS011;44539;42.962;1.596;2023-03-03T12:12:23;19.83;;;8.07;;
58770;SDS011;44539;42.962;1.596;2023-03-03T12:14:59;17.33;;;7.05;;
58770;SDS011;44539;42.962;1.596;2023-03-03T12:20:24;15.07;;;7.13;;
58770;SDS011;44539;42.962;1.596;2023-03-03T12:22:59;15.43;;;7.32;;
58770;SDS011;44539;42.962;1.596;2023-03-03T12:28:21;16.77;;;6.82;;
58770;SDS011;44539;42.962;1.596;2023-03-03T12:39:04;16.50;;;7.47;;
58770;SDS011;44539;42.962;1.596;2023-03-03T12:47:21;15.88;;;7.28;;
58770;SDS011;44539;42.962;1.596;2023-03-03T12:52:31;14.93;;;6.97;;
58770;SDS011;44539;42.962;1.596;2023-03-03T13:11:54;20.23;;;8.65;;
58770;SDS011;44539;42.962;1.596;2023-03-03T13:17:21;16.52;;;7.47;;
58770;SDS011;44539;42.962;1.596;2023-03-03T13:19:57;18.00;;;7.68;;
58770;SDS011;44539;42.962;1.596;2023-03-03T13:22:45;14.82;;;7.53;;
58770;SDS011;44539;42.962;1.596;2023-03-03T13:28:35;16.45;;;7.90;;
58770;SDS011;44539;42.962;1.596;2023-03-03T13:31:20;15.00;;;7.28;;
58770;SDS011;44539;42.962;1.596;2023-03-03T13:33:52;17.17;;;7.18;;
58770;SDS011;44539;42.962;1.596;2023-03-03T13:36:19;13.63;;;6.65;;
58770;SDS011;44539;42.962;1.596;2023-03-03T13:38:56;15.48;;;6.55;;
58770;SDS011;44539;42.962;1.596;2023-03-03T13:44:01;13.68;;;7.13;;
58770;SDS011;44539;42.962;1.596;2023-03-03T13:46:35;18.38;;;7.93;;
58770;SDS011;44539;42.962;1.596;2023-03-03T13:49:10;16.83;;;8.00;;
58770;SDS011;44539;42.962;1.596;2023-03-03T13:57:11;17.13;;;8.00;;
58770;SDS011;44539;42.962;1.596;2023-03-03T14:05:11;18.05;;;8.25;;
58770;SDS011;44539;42.962;1.596;2023-03-03T14:07:59;16.58;;;7.97;;
58770;SDS011;44539;42.962;1.596;2023-03-03T14:10:29;17.65;;;7.20;;
58770;SDS011;44539;42.962;1.596;2023-03-03T14:13:11;17.42;;;7.88;;
58770;SDS011;44539;42.962;1.596;2023-03-03T14:18:21;16.25;;;7.15;;
58770;SDS011;44539;42.962;1.596;2023-03-03T14:21:15;18.17;;;7.78;;
58770;SDS011;44539;42.962;1.596;2023-03-03T14:26:21;12.98;;;6.50;;
58770;SDS011;44539;42.962;1.596;2023-03-03T14:28:48;14.98;;;7.00;;
58770;SDS011;44539;42.962;1.596;2023-03-03T14:31:19;16.00;;;6.72;;
58770;SDS011;44539;42.962;1.596;2023-03-03T14:33:55;14.50;;;6.57;;
58770;SDS011;44539;42.962;1.596;2023-03-03T14:36:30;13.25;;;6.90;;
58770;SDS011;44539;42.962;1.596;2023-03-03T14:38:57;16.45;;;8.23;;
58770;SDS011;44539;42.962;1.596;2023-03-03T14:41:37;16.85;;;7.53;;
58770;SDS011;44539;42.962;1.596;2023-03-03T14:44:20;14.43;;;6.63;;
58770;SDS011;44539;42.962;1.596;2023-03-03T14:47:02;16.45;;;7.40;;
58770;SDS011;44539;42.962;1.596;2023-03-03T14:49:46;14.35;;;7.03;;
58770;SDS011;44539;42.962;1.596;2023-03-03T14:54:41;16.58;;;7.57;;
58770;SDS011;44539;42.962;1.596;2023-03-03T14:57:16;17.15;;;7.43;;
58770;SDS011;44539;42.962;1.596;2023-03-03T14:59:59;13.32;;;7.00;;
58770;SDS011;44539;42.962;1.596;2023-03-03T15:02:40;26.27;;;7.20;;
58770;SDS011;44539;42.962;1.596;2023-03-03T15:05:26;14.65;;;7.43;;
58770;SDS011;44539;42.962;1.596;2023-03-03T15:10:40;14.70;;;7.30;;
58770;SDS011;44539;42.962;1.596;2023-03-03T15:18:26;18.48;;;8.88;;
58770;SDS011;44539;42.962;1.596;2023-03-03T15:21:14;17.75;;;8.27;;
58770;SDS011;44539;42.962;1.596;2023-03-03T15:23:48;18.02;;;7.82;;
58770;SDS011;44539;42.962;1.596;2023-03-03T15:28:53;35.67;;;9.95;;
58770;SDS011;44539;42.962;1.596;2023-03-03T15:34:37;20.23;;;9.38;;
58770;SDS011;44539;42.962;1.596;2023-03-03T15:40:18;18.83;;;8.60;;
58770;SDS011;44539;42.962;1.596;2023-03-03T15:45:34;20.50;;;9.40;;
58770;SDS011;44539;42.962;1.596;2023-03-03T15:54:09;18.40;;;8.98;;
58770;SDS011;44539;42.962;1.596;2023-03-03T16:04:55;19.80;;;9.88;;
58770;SDS011;44539;42.962;1.596;2023-03-03T16:07:33;22.25;;;9.32;;
58770;SDS011;44539;42.962;1.596;2023-03-03T16:12:56;17.83;;;8.93;;
58770;SDS011;44539;42.962;1.596;2023-03-03T16:23:44;19.80;;;8.68;;
58770;SDS011;44539;42.962;1.596;2023-03-03T16:32:09;20.02;;;9.23;;
58770;SDS011;44539;42.962;1.596;2023-03-03T16:34:54;21.15;;;9.23;;
58770;SDS011;44539;42.962;1.596;2023-03-03T16:37:31;19.17;;;8.52;;
58770;SDS011;44539;42.962;1.596;2023-03-03T16:40:10;19.80;;;9.00;;
58770;SDS011;44539;42.962;1.596;2023-03-03T16:42:43;21.40;;;8.95;;
58770;SDS011;44539;42.962;1.596;2023-03-03T16:45:28;19.00;;;8.88;;
58770;SDS011;44539;42.962;1.596;2023-03-03T17:04:14;18.50;;;8.85;;
58770;SDS011;44539;42.962;1.596;2023-03-03T17:09:22;16.83;;;8.25;;
58770;SDS011;44539;42.962;1.596;2023-03-03T17:23:54;20.63;;;9.25;;
58770;SDS011;44539;42.962;1.596;2023-03-03T17:37:19;21.63;;;10.63;;
58770;SDS011;44539;42.962;1.596;2023-03-03T17:43:03;23.60;;;11.10;;
58770;SDS011;44539;42.962;1.596;2023-03-03T17:45:40;26.70;;;11.40;;
58770;SDS011;44539;42.962;1.596;2023-03-03T17:51:06;22.38;;;10.15;;
58770;SDS011;44539;42.962;1.596;2023-03-03T18:22:44;30.25;;;12.95;;
58770;SDS011;44539;42.962;1.596;2023-03-03T18:27:38;33.15;;;14.18;;
58770;SDS011;44539;42.962;1.596;2023-03-03T18:30:17;32.22;;;14.30;;
58770;SDS011;44539;42.962;1.596;2023-03-03T18:35:20;35.25;;;14.18;;
58770;SDS011;44539;42.962;1.596;2023-03-03T18:37:48;28.30;;;12.60;;
58770;SDS011;44539;42.962;1.596;2023-03-03T18:42:54;38.15;;;16.05;;
58770;SDS011;44539;42.962;1.596;2023-03-03T18:48:03;26.25;;;12.02;;
58770;SDS011;44539;42.962;1.596;2023-03-03T18:50:45;29.48;;;13.15;;
58770;SDS011;44539;42.962;1.596;2023-03-03T18:53:17;32.90;;;14.27;;
